createdAt,value
2018-12-10T00:00:08.792Z,61.80
2018-12-10T00:02:36.730Z,62.70
2018-12-10T00:05:05.654Z,63.40
2018-12-10T00:07:33.465Z,66.10
2018-12-10T00:10:01.340Z,68.60
2018-12-10T00:12:29.262Z,69.80
2018-12-10T00:14:57.764Z,74.10
2018-12-10T00:17:25.737Z,75.40
2018-12-10T00:19:53.462Z,74.70
2018-12-10T00:22:21.130Z,74.80
2018-12-10T00:24:48.855Z,76.20
2018-12-10T00:27:16.498Z,74.50
2018-12-10T00:29:44.198Z,75.20
2018-12-10T00:32:12.227Z,72.70
2018-12-10T00:34:40.530Z,73.30
2018-12-10T00:37:08.466Z,74.20
2018-12-10T00:39:36.215Z,76.00
2018-12-10T00:42:03.892Z,80.40
2018-12-10T00:44:32.033Z,81.90
2018-12-10T00:46:59.977Z,82.70
2018-12-10T00:49:27.699Z,82.00
2018-12-10T00:51:56.280Z,81.90
2018-12-10T00:54:24.110Z,81.60
2018-12-10T00:56:51.822Z,82.70
2018-12-10T00:59:19.669Z,82.30
2018-12-10T01:01:47.329Z,82.90
2018-12-10T01:04:14.973Z,86.00
2018-12-10T01:06:42.671Z,87.50
2018-12-10T01:09:10.327Z,88.30
2018-12-10T01:11:37.960Z,88.20
2018-12-10T01:14:05.610Z,89.80
2018-12-10T01:16:33.399Z,89.70
2018-12-10T01:19:02.747Z,90.60
2018-12-10T01:21:30.551Z,90.00
2018-12-10T01:23:58.232Z,91.70
2018-12-10T01:26:25.871Z,93.40
2018-12-10T01:28:53.565Z,93.40
2018-12-10T01:31:21.349Z,92.70
2018-12-10T01:33:49.652Z,93.00
2018-12-10T01:36:17.361Z,91.50
2018-12-10T01:38:44.987Z,88.60
2018-12-10T01:41:12.670Z,84.90
2018-12-10T01:43:40.458Z,83.00
2018-12-10T01:46:09.249Z,83.20
2018-12-10T01:48:36.998Z,82.20
2018-12-10T01:51:04.825Z,79.70
2018-12-10T01:53:32.625Z,81.20
2018-12-10T01:56:01.013Z,79.90
2018-12-10T01:58:28.668Z,75.70
2018-12-10T02:00:56.414Z,75.00
2018-12-10T02:03:24.419Z,75.90
2018-12-10T02:05:52.055Z,75.10
2018-12-10T02:08:20.325Z,75.50
2018-12-10T02:10:48.066Z,75.10
2018-12-10T02:13:16.293Z,74.50
2018-12-10T02:15:43.986Z,74.20
2018-12-10T02:18:11.597Z,75.10
2018-12-10T02:20:39.429Z,76.50
2018-12-10T02:23:07.254Z,83.10
2018-12-10T02:25:34.973Z,83.50
2018-12-10T02:28:03.795Z,83.80
2018-12-10T02:30:31.440Z,83.30
2018-12-10T02:32:59.137Z,81.30
2018-12-10T02:35:26.762Z,81.00
2018-12-10T02:37:54.496Z,79.50
2018-12-10T02:40:22.686Z,78.90
2018-12-10T02:42:50.375Z,81.30
2018-12-10T02:45:17.988Z,81.80
2018-12-10T02:47:45.575Z,81.50
2018-12-10T02:50:13.267Z,84.70
2018-12-10T02:52:40.994Z,87.10
2018-12-10T02:55:08.704Z,86.90
2018-12-10T02:57:36.288Z,88.40
2018-12-10T03:00:04.266Z,84.80
2018-12-10T03:02:32.135Z,84.50
2018-12-10T03:10:45.800Z,73.50
2018-12-10T03:13:13.463Z,72.00
2018-12-10T03:15:41.292Z,68.20
2018-12-10T03:18:08.963Z,68.30
2018-12-10T03:20:36.647Z,68.10
2018-12-10T03:23:04.242Z,68.70
2018-12-10T03:25:31.983Z,68.10
2018-12-10T03:28:00.237Z,68.50
2018-12-10T03:30:28.528Z,68.80
2018-12-10T03:32:56.236Z,69.80
2018-12-10T03:35:23.844Z,69.40
2018-12-10T03:37:51.500Z,70.10
2018-12-10T03:40:19.161Z,69.40
2018-12-10T03:42:47.501Z,69.40
2018-12-10T03:45:15.132Z,69.40
2018-12-10T03:47:42.785Z,68.60
2018-12-10T03:50:10.426Z,68.50
2018-12-10T03:52:38.104Z,68.90
2018-12-10T03:55:06.179Z,68.40
2018-12-10T03:57:33.849Z,68.20
2018-12-10T04:00:01.566Z,68.00
2018-12-10T04:02:29.306Z,67.70
2018-12-10T04:04:56.982Z,68.10
2018-12-10T04:07:24.571Z,68.30
2018-12-10T04:09:53.032Z,68.30
2018-12-10T04:12:20.789Z,68.40
2018-12-10T04:14:49.088Z,68.30
2018-12-10T04:17:16.754Z,68.10
2018-12-10T04:19:44.373Z,67.80
2018-12-10T04:22:12.111Z,68.00
2018-12-10T04:24:39.736Z,68.40
2018-12-10T04:27:07.483Z,67.70
2018-12-10T04:29:35.139Z,67.30
2018-12-10T04:32:03.423Z,66.90
2018-12-10T04:34:31.106Z,67.20
2018-12-10T04:36:58.714Z,67.20
2018-12-10T04:39:26.467Z,67.10
2018-12-10T04:41:54.826Z,66.90
2018-12-10T04:44:22.525Z,66.40
2018-12-10T04:46:50.105Z,65.30
2018-12-10T04:49:17.850Z,65.90
2018-12-10T04:51:45.711Z,65.80
2018-12-10T04:54:13.331Z,65.70
2018-12-10T04:56:41.789Z,65.60
2018-12-10T04:59:09.531Z,66.10
2018-12-10T05:01:37.194Z,66.30
2018-12-10T05:04:04.787Z,67.20
2018-12-10T05:06:32.413Z,66.80
2018-12-10T05:09:00.146Z,67.80
2018-12-10T05:11:27.965Z,67.80
2018-12-10T05:13:55.602Z,69.90
2018-12-10T05:16:23.355Z,69.80
2018-12-10T05:18:50.990Z,70.50
2018-12-10T05:21:18.641Z,69.00
2018-12-10T05:23:46.321Z,68.30
2018-12-10T05:26:14.034Z,68.00
2018-12-10T05:28:41.726Z,67.00
2018-12-10T05:31:10.280Z,65.40
2018-12-10T05:33:37.918Z,66.20
2018-12-10T05:36:05.685Z,65.20
2018-12-10T05:38:33.318Z,65.40
2018-12-10T05:41:01.926Z,66.60
2018-12-10T05:43:30.639Z,65.90
2018-12-10T05:45:59.073Z,65.00
2018-12-10T05:48:26.726Z,63.60
2018-12-10T05:50:54.438Z,63.60
2018-12-10T05:53:22.066Z,62.30
2018-12-10T05:55:49.830Z,61.60
2018-12-10T05:58:17.809Z,61.20
2018-12-10T06:00:45.758Z,61.50
2018-12-10T06:03:13.395Z,60.20
2018-12-10T06:05:41.313Z,60.20
2018-12-10T06:08:09.550Z,60.10
2018-12-10T06:10:37.275Z,60.40
2018-12-10T06:13:05.466Z,60.50
2018-12-10T06:15:33.870Z,59.80
2018-12-10T06:18:01.470Z,60.10
2018-12-10T06:20:29.150Z,60.10
2018-12-10T06:22:56.919Z,60.10
2018-12-10T06:25:24.740Z,58.40
2018-12-10T06:27:52.640Z,60.10
2018-12-10T06:30:21.309Z,59.30
2018-12-10T06:32:49.070Z,59.80
2018-12-10T06:35:16.796Z,60.10
2018-12-10T06:37:44.587Z,60.70
2018-12-10T06:40:13.009Z,60.10
2018-12-10T06:42:40.984Z,60.90
2018-12-10T06:45:08.754Z,60.30
2018-12-10T06:47:36.590Z,60.60
2018-12-10T06:50:05.150Z,60.20
2018-12-10T06:52:32.816Z,60.20
2018-12-10T06:55:01.649Z,59.80
2018-12-10T06:57:29.574Z,60.30
2018-12-10T06:59:57.443Z,60.20
2018-12-10T07:02:25.282Z,59.80
2018-12-10T07:04:53.650Z,60.20
2018-12-10T07:07:21.792Z,60.00
2018-12-10T07:09:49.571Z,60.10
2018-12-10T07:12:17.253Z,60.10
2018-12-10T07:14:45.022Z,60.60
2018-12-10T07:17:12.908Z,60.10
2018-12-10T07:19:40.753Z,60.60
2018-12-10T07:22:08.574Z,60.60
2018-12-10T07:24:36.292Z,60.60
2018-12-10T07:27:04.130Z,60.70
2018-12-10T07:29:32.560Z,60.20
2018-12-10T07:32:00.270Z,60.80
2018-12-10T07:34:28.170Z,61.10
2018-12-10T07:36:55.899Z,61.00
2018-12-10T07:39:25.336Z,60.50
2018-12-10T07:41:52.993Z,60.90
2018-12-10T07:44:20.821Z,60.80
2018-12-10T07:46:48.570Z,60.60
2018-12-10T07:49:16.379Z,60.70
2018-12-10T07:51:44.122Z,61.30
2018-12-10T07:54:11.933Z,60.20
2018-12-10T07:56:39.679Z,61.20
2018-12-10T07:59:07.318Z,60.20
2018-12-10T08:01:35.057Z,59.90
2018-12-10T08:04:02.828Z,60.30
2018-12-10T08:06:30.454Z,60.60
2018-12-10T08:08:58.133Z,60.10
2018-12-10T08:11:25.860Z,59.80
2018-12-10T08:13:53.660Z,60.30
2018-12-10T08:16:21.342Z,59.40
2018-12-10T08:18:49.777Z,58.70
2018-12-10T08:21:17.456Z,59.60
2018-12-10T08:23:46.564Z,58.00
2018-12-10T08:26:14.642Z,59.50
2018-12-10T08:28:42.828Z,59.50
2018-12-10T08:31:10.475Z,59.10
2018-12-10T08:33:39.779Z,57.10
2018-12-10T08:36:07.538Z,55.40
2018-12-10T08:38:35.186Z,55.20
2018-12-10T08:41:03.460Z,54.80
2018-12-10T08:43:31.316Z,56.80
2018-12-10T08:45:59.006Z,54.60
2018-12-10T08:48:26.697Z,54.20
2018-12-10T08:50:54.410Z,52.50
2018-12-10T08:53:22.094Z,54.30
2018-12-10T08:55:49.762Z,54.30
2018-12-10T08:58:17.584Z,54.40
2018-12-10T09:00:45.299Z,54.70
2018-12-10T09:03:13.268Z,54.20
2018-12-10T09:05:41.358Z,53.60
2018-12-10T09:08:09.107Z,51.80
2018-12-10T09:10:36.907Z,53.00
2018-12-10T09:13:04.740Z,51.40
2018-12-10T09:15:32.469Z,51.20
2018-12-10T09:18:00.238Z,51.80
2018-12-10T09:20:28.018Z,51.20
2018-12-10T09:22:55.861Z,53.10
2018-12-10T09:25:24.700Z,50.40
2018-12-10T09:27:53.398Z,49.80
2018-12-10T09:30:21.089Z,49.60
2018-12-10T09:32:49.233Z,49.40
2018-12-10T09:35:17.048Z,49.50
2018-12-10T09:37:45.058Z,50.20
2018-12-10T09:40:12.911Z,48.70
2018-12-10T09:42:41.968Z,48.50
2018-12-10T09:45:09.806Z,47.80
2018-12-10T09:47:37.607Z,49.20
2018-12-10T09:50:06.522Z,49.40
2018-12-10T09:52:34.511Z,48.90
2018-12-10T09:55:02.364Z,47.60
2018-12-10T09:57:30.183Z,47.80
2018-12-10T09:59:57.887Z,47.50
2018-12-10T10:02:26.010Z,47.80
2018-12-10T10:04:53.718Z,46.20
2018-12-10T10:07:28.432Z,47.00
2018-12-10T10:09:51.270Z,46.50
2018-12-10T10:12:19.836Z,46.60
2018-12-10T10:14:48.361Z,48.90
2018-12-10T10:17:16.033Z,47.70
2018-12-10T10:19:44.585Z,46.00
2018-12-10T10:22:12.309Z,46.80
2018-12-10T10:24:39.989Z,45.00
2018-12-10T10:27:07.831Z,45.10
2018-12-10T10:29:35.614Z,44.00
2018-12-10T10:32:03.317Z,44.30
2018-12-10T10:34:31.059Z,44.40
2018-12-10T10:36:59.322Z,45.40
2018-12-10T10:39:28.269Z,43.80
2018-12-10T10:41:57.381Z,43.80
2018-12-10T10:44:25.353Z,43.30
2018-12-10T10:46:53.177Z,44.20
2018-12-10T10:49:21.121Z,42.90
2018-12-10T10:51:49.017Z,41.80
2018-12-10T10:54:17.695Z,42.20
2018-12-10T10:56:45.431Z,42.20
2018-12-10T10:59:13.167Z,41.80
2018-12-10T11:01:46.779Z,42.30
2018-12-10T11:04:14.418Z,42.00
2018-12-10T11:06:42.207Z,41.80
2018-12-10T11:09:15.258Z,41.70
2018-12-10T11:11:40.725Z,41.90
2018-12-10T11:14:08.662Z,41.60
2018-12-10T11:16:36.293Z,41.80
2018-12-10T11:19:04.640Z,41.40
2018-12-10T11:21:32.514Z,42.00
2018-12-10T11:24:00.142Z,41.30
2018-12-10T11:26:27.976Z,41.40
2018-12-10T11:28:58.897Z,41.00
2018-12-10T11:31:26.745Z,41.80
2018-12-10T11:33:54.665Z,41.80
2018-12-10T11:36:23.343Z,41.80
2018-12-10T11:38:51.693Z,42.00
2018-12-10T11:41:19.919Z,42.00
2018-12-10T11:43:48.545Z,42.00
2018-12-10T11:46:16.296Z,42.80
2018-12-10T11:48:44.758Z,42.10
2018-12-10T11:51:14.175Z,42.30
2018-12-10T11:53:41.846Z,42.50
2018-12-10T11:56:10.327Z,41.70
2018-12-10T11:58:38.009Z,41.80
2018-12-10T12:01:06.295Z,40.10
2018-12-10T12:03:33.961Z,39.90
2018-12-10T12:06:01.559Z,39.20
2018-12-10T12:08:29.358Z,39.20
2018-12-10T12:10:57.038Z,38.90
2018-12-10T12:13:24.692Z,39.30
2018-12-10T12:15:52.343Z,39.70
2018-12-10T12:18:21.234Z,39.40
2018-12-10T12:20:48.879Z,38.90
2018-12-10T12:23:16.634Z,39.20
2018-12-10T12:25:44.297Z,38.70
2018-12-10T12:28:11.960Z,38.90
2018-12-10T12:30:39.684Z,38.90
2018-12-10T12:33:07.401Z,38.60
2018-12-10T12:35:35.066Z,39.10
2018-12-10T12:38:07.010Z,38.80
2018-12-10T12:40:34.785Z,38.10
2018-12-10T12:43:06.904Z,38.80
2018-12-10T12:45:32.301Z,38.70
2018-12-10T12:48:00.151Z,39.20
2018-12-10T12:50:27.900Z,38.90
2018-12-10T12:52:55.725Z,38.20
2018-12-10T12:55:24.971Z,37.00
2018-12-10T12:57:52.691Z,35.80
2018-12-10T13:00:26.962Z,36.10
2018-12-10T13:02:50.855Z,36.30
2018-12-10T13:05:19.170Z,35.10
2018-12-10T13:07:46.992Z,34.70
2018-12-10T13:10:14.799Z,34.90
2018-12-10T13:12:43.465Z,35.10
2018-12-10T13:15:11.261Z,34.70
2018-12-10T13:17:39.039Z,35.00
2018-12-10T13:20:07.200Z,35.10
2018-12-10T13:22:34.937Z,35.00
2018-12-10T13:25:02.870Z,35.00
2018-12-10T13:27:30.554Z,35.50
2018-12-10T13:29:58.306Z,33.70
2018-12-10T13:32:26.261Z,33.00
2018-12-10T13:34:54.107Z,30.50
2018-12-10T13:37:21.938Z,30.00
2018-12-10T13:39:49.696Z,32.10
2018-12-10T13:42:17.476Z,32.30
2018-12-10T13:44:49.061Z,31.90
2018-12-10T13:47:16.954Z,32.20
2018-12-10T13:49:45.015Z,32.50
2018-12-10T13:52:12.826Z,32.70
2018-12-10T13:54:41.098Z,32.40
2018-12-10T13:57:09.069Z,32.40
2018-12-10T13:59:36.978Z,32.00
2018-12-10T14:02:04.905Z,32.10
2018-12-10T14:04:37.266Z,31.90
2018-12-10T14:07:05.749Z,32.10
2018-12-10T14:09:33.837Z,32.80
2018-12-10T14:12:01.642Z,33.60
2018-12-10T14:14:29.636Z,33.20
2018-12-10T14:16:57.374Z,33.30
2018-12-10T14:19:25.814Z,34.00
2018-12-10T14:21:54.231Z,33.50
2018-12-10T14:24:21.989Z,33.50
2018-12-10T14:26:49.714Z,33.70
2018-12-10T14:29:17.741Z,33.90
2018-12-10T14:31:45.662Z,34.20
2018-12-10T14:34:19.094Z,34.00
2018-12-10T14:36:47.978Z,33.80
2018-12-10T14:39:16.234Z,33.80
2018-12-10T14:41:44.459Z,33.30
2018-12-10T14:44:12.349Z,34.00
2018-12-10T14:46:40.764Z,33.50
2018-12-10T14:49:08.883Z,32.20
2018-12-10T14:51:36.924Z,33.60
2018-12-10T14:54:04.691Z,32.50
2018-12-10T14:56:32.949Z,32.80
2018-12-10T14:59:01.511Z,32.50
2018-12-10T15:01:29.446Z,33.10
2018-12-10T15:03:57.260Z,32.80
2018-12-10T15:06:24.963Z,32.60
2018-12-10T15:08:53.415Z,32.90
2018-12-10T15:11:21.204Z,32.80
2018-12-10T15:13:48.982Z,32.80
2018-12-10T15:16:16.742Z,33.30
2018-12-10T15:18:44.518Z,32.70
2018-12-10T15:21:12.294Z,32.70
2018-12-10T15:23:39.942Z,33.40
2018-12-10T15:26:08.023Z,33.40
2018-12-10T15:28:35.670Z,33.10
2018-12-10T15:31:04.556Z,33.60
2018-12-10T15:33:32.281Z,33.20
2018-12-10T15:36:00.308Z,33.30
2018-12-10T15:38:28.713Z,33.40
2018-12-10T15:40:57.129Z,33.90
2018-12-10T15:43:24.867Z,34.50
2018-12-10T15:45:52.685Z,34.50
2018-12-10T15:51:04.996Z,34.80
2018-12-10T15:53:32.692Z,34.70
2018-12-10T15:56:00.527Z,34.30
2018-12-10T15:58:28.487Z,34.90
2018-12-10T16:00:56.197Z,35.20
2018-12-10T16:03:24.530Z,35.20
2018-12-10T16:05:52.296Z,35.70
2018-12-10T16:08:19.990Z,35.70
2018-12-10T16:10:47.622Z,35.20
2018-12-10T16:13:15.281Z,36.00
2018-12-10T16:15:42.978Z,36.60
2018-12-10T16:18:10.855Z,36.20
2018-12-10T16:20:40.062Z,36.00
2018-12-10T16:23:07.827Z,35.50
2018-12-10T16:25:35.720Z,36.30
2018-12-10T16:28:03.589Z,36.00
2018-12-10T16:30:32.248Z,36.20
2018-12-10T16:33:00.329Z,37.00
2018-12-10T16:35:28.098Z,36.60
2018-12-10T16:37:56.098Z,36.80
2018-12-10T16:40:23.903Z,37.30
2018-12-10T16:42:51.680Z,37.00
2018-12-10T16:45:19.456Z,37.40
2018-12-10T16:47:48.832Z,37.30
2018-12-10T16:50:16.858Z,38.00
2018-12-10T16:52:44.663Z,38.00
2018-12-10T16:55:12.719Z,37.80
2018-12-10T16:57:41.168Z,38.70
2018-12-10T17:00:12.040Z,39.10
2018-12-10T17:02:40.919Z,38.80
2018-12-10T17:05:09.125Z,39.40
2018-12-10T17:07:36.994Z,39.70
2018-12-10T17:10:07.519Z,39.40
2018-12-10T17:12:35.660Z,40.10
2018-12-10T17:15:05.408Z,39.30
2018-12-10T17:17:33.915Z,39.40
2018-12-10T17:20:01.816Z,40.90
2018-12-10T17:22:30.374Z,43.30
2018-12-10T17:24:58.427Z,50.30
2018-12-10T17:27:26.565Z,60.50
2018-12-10T17:29:54.452Z,62.60
2018-12-10T17:32:22.878Z,65.20
2018-12-10T17:34:50.778Z,69.10
2018-12-10T17:37:18.675Z,68.60
2018-12-10T17:39:46.503Z,68.50
2018-12-10T17:42:14.499Z,69.40
2018-12-10T17:44:42.371Z,71.70
2018-12-10T17:47:10.359Z,71.40
2018-12-10T17:49:38.818Z,71.70
2018-12-10T17:52:07.193Z,70.20
2018-12-10T17:54:34.996Z,69.50
2018-12-10T17:57:02.850Z,68.70
2018-12-10T17:59:30.624Z,65.80
2018-12-10T18:01:59.737Z,66.60
2018-12-10T18:04:27.565Z,67.00
2018-12-10T18:06:55.415Z,67.00
2018-12-10T18:09:23.405Z,67.20
2018-12-10T18:11:51.373Z,66.60
2018-12-10T18:14:20.042Z,66.60
2018-12-10T18:16:47.714Z,65.70
2018-12-10T18:19:15.686Z,63.10
2018-12-10T18:21:43.520Z,63.80
2018-12-10T18:24:11.902Z,64.00
2018-12-10T18:26:39.689Z,62.50
2018-12-10T18:29:07.497Z,63.20
2018-12-10T18:31:35.226Z,63.70
2018-12-10T18:34:03.576Z,64.10
2018-12-10T18:36:31.349Z,63.80
2018-12-10T18:38:59.274Z,64.40
2018-12-10T18:41:27.134Z,65.10
2018-12-10T18:43:55.144Z,65.00
2018-12-10T18:46:23.024Z,63.60
2018-12-10T18:48:52.075Z,64.40
2018-12-10T18:51:19.789Z,65.40
2018-12-10T18:53:47.979Z,64.40
2018-12-10T18:56:16.120Z,64.40
2018-12-10T18:58:44.229Z,64.40
2018-12-10T19:01:12.249Z,64.40
2018-12-10T19:03:40.270Z,64.50
2018-12-10T19:06:08.121Z,65.70
2018-12-10T19:08:36.137Z,67.70
2018-12-10T19:11:04.350Z,68.60
2018-12-10T19:13:32.383Z,71.50
2018-12-10T19:16:00.320Z,68.10
2018-12-10T19:18:28.179Z,67.90
2018-12-10T19:20:56.036Z,67.30
2018-12-10T19:23:25.345Z,66.80
2018-12-10T19:25:53.904Z,68.10
2018-12-10T19:28:21.830Z,67.20
2018-12-10T19:30:50.211Z,68.20
2018-12-10T19:33:17.972Z,68.70
2018-12-10T19:35:45.830Z,68.30
2018-12-10T19:38:13.630Z,68.80
2018-12-10T19:40:41.433Z,69.20
2018-12-10T19:43:09.303Z,68.60
2018-12-10T19:45:37.032Z,67.50
2018-12-10T19:48:04.983Z,67.20
2018-12-10T19:50:32.904Z,67.00
2018-12-10T19:53:00.675Z,66.80
2018-12-10T19:55:28.513Z,66.60
2018-12-10T19:57:56.362Z,66.30
2018-12-10T20:00:24.200Z,66.00
2018-12-10T20:02:52.845Z,65.00
2018-12-10T20:05:26.201Z,64.20
2018-12-10T20:07:54.077Z,61.80
2018-12-10T20:10:21.931Z,61.80
2018-12-10T20:12:49.671Z,60.90
2018-12-10T20:15:17.517Z,59.50
2018-12-10T20:17:45.220Z,60.00
2018-12-10T20:20:14.151Z,58.60
2018-12-10T20:22:42.017Z,58.50
2018-12-10T20:25:09.852Z,58.50
2018-12-10T20:27:37.696Z,58.50
2018-12-10T20:30:06.157Z,58.20
2018-12-10T20:32:34.685Z,60.00
2018-12-10T20:35:03.927Z,58.60
2018-12-10T20:37:31.652Z,58.60
2018-12-10T20:40:00.059Z,59.60
2018-12-10T20:42:27.778Z,58.90
2018-12-10T20:44:55.615Z,59.70
2018-12-10T20:47:23.392Z,58.50
2018-12-10T20:49:51.845Z,58.30
2018-12-10T20:52:19.609Z,58.80
2018-12-10T20:54:47.463Z,59.90
2018-12-10T20:57:15.357Z,60.40
2018-12-10T20:59:44.129Z,60.20
2018-12-10T21:02:12.080Z,60.20
2018-12-10T21:04:39.891Z,60.20
2018-12-10T21:07:07.747Z,59.00
2018-12-10T21:09:35.474Z,59.00
2018-12-10T21:12:03.567Z,59.20
2018-12-10T21:14:31.314Z,59.90
2018-12-10T21:16:59.140Z,59.20
2018-12-10T21:19:27.165Z,60.40
2018-12-10T21:21:55.151Z,60.50
2018-12-10T21:24:22.882Z,60.40
2018-12-10T21:26:50.650Z,60.40
2018-12-10T21:29:18.310Z,58.30
2018-12-10T21:31:45.981Z,59.00
2018-12-10T21:34:13.974Z,59.10
2018-12-10T21:36:41.838Z,57.70
2018-12-10T21:39:09.515Z,57.30
2018-12-10T21:41:37.420Z,57.70
2018-12-10T21:44:05.688Z,58.20
2018-12-10T21:46:33.501Z,58.00
2018-12-10T21:49:01.304Z,57.60
2018-12-10T21:51:29.013Z,57.60
2018-12-10T21:53:56.740Z,58.80
2018-12-10T21:56:24.623Z,58.40
2018-12-10T21:58:52.443Z,59.20
2018-12-10T22:01:20.434Z,60.30
2018-12-10T22:03:48.237Z,60.70
2018-12-10T22:06:15.987Z,60.20
2018-12-10T22:08:43.647Z,60.00
2018-12-10T22:11:12.059Z,59.90
2018-12-10T22:13:39.799Z,60.00
2018-12-10T22:16:07.683Z,60.10
2018-12-10T22:18:35.379Z,60.40
2018-12-10T22:21:03.206Z,60.90
2018-12-10T22:23:31.084Z,61.10
2018-12-10T22:25:59.516Z,60.90
2018-12-10T22:28:27.258Z,61.00
2018-12-10T22:30:55.698Z,60.90
2018-12-10T22:33:23.392Z,60.80
2018-12-10T22:35:51.083Z,60.80
2018-12-10T22:38:18.928Z,61.50
2018-12-10T22:40:46.632Z,62.50
2018-12-10T22:43:14.319Z,62.40
2018-12-10T22:45:42.019Z,62.30
2018-12-10T22:48:09.689Z,62.60
2018-12-10T22:50:37.881Z,61.70
2018-12-10T22:53:05.619Z,62.30
2018-12-10T22:55:33.908Z,61.60
2018-12-10T22:58:01.654Z,61.60
2018-12-10T23:00:34.908Z,62.40
2018-12-10T23:03:03.262Z,62.40
2018-12-10T23:05:30.896Z,62.00
2018-12-10T23:07:58.558Z,61.90
2018-12-10T23:10:36.083Z,62.40
2018-12-10T23:13:03.897Z,62.40
2018-12-10T23:15:32.653Z,62.00
2018-12-10T23:18:00.372Z,62.30
2018-12-10T23:20:28.025Z,62.80
2018-12-10T23:22:55.748Z,63.70
2018-12-10T23:25:23.477Z,63.70
2018-12-10T23:27:51.666Z,63.50
2018-12-10T23:30:19.322Z,64.40
2018-12-10T23:32:46.966Z,63.50
2018-12-10T23:35:14.707Z,64.00
2018-12-10T23:37:42.326Z,63.50
2018-12-10T23:40:09.932Z,63.70
2018-12-10T23:42:42.867Z,63.70
2018-12-10T23:45:10.545Z,63.20
2018-12-10T23:47:38.226Z,62.50
2018-12-10T23:50:06.197Z,62.60
2018-12-10T23:52:34.715Z,61.60
2018-12-10T23:55:02.705Z,61.90
2018-12-10T23:57:30.971Z,62.20
2018-12-10T23:59:59.306Z,61.10
